createdAt,value
2023-04-21T00:00:21.437Z,5.64
2023-04-21T00:01:21.397Z,5.68
2023-04-21T00:02:22.013Z,5.69
2023-04-21T00:03:22.689Z,5.71
2023-04-21T00:04:22.487Z,5.62
2023-04-21T00:05:22.730Z,5.61
2023-04-21T00:06:23.197Z,5.62
2023-04-21T00:07:23.286Z,5.66
2023-04-21T00:08:23.811Z,5.71
2023-04-21T00:09:24.369Z,5.71
2023-04-21T00:10:24.937Z,5.66
2023-04-21T00:11:25.510Z,5.61
2023-04-21T00:12:26.068Z,5.57
2023-04-21T00:13:26.612Z,5.48
2023-04-21T00:14:27.150Z,5.54
2023-04-21T00:15:27.709Z,5.54
2023-04-21T00:16:28.305Z,5.47
2023-04-21T00:17:28.341Z,5.56
2023-04-21T00:18:28.312Z,5.54
2023-04-21T00:19:28.866Z,5.53
2023-04-21T00:20:29.442Z,5.64
2023-04-21T00:21:30.005Z,5.48
2023-04-21T00:22:30.014Z,5.51
2023-04-21T00:23:30.565Z,5.47
2023-04-21T00:24:31.114Z,5.54
2023-04-21T00:25:31.655Z,5.46
2023-04-21T00:26:32.195Z,5.53
2023-04-21T00:27:32.746Z,5.41
2023-04-21T00:28:33.306Z,5.39
2023-04-21T00:29:33.847Z,5.43
2023-04-21T00:30:34.380Z,5.46
2023-04-21T00:31:34.965Z,5.35
2023-04-21T00:32:34.960Z,5.47
2023-04-21T00:33:35.477Z,5.43
2023-04-21T00:34:35.994Z,5.44
2023-04-21T00:35:36.501Z,5.41
2023-04-21T00:36:37.006Z,5.46
2023-04-21T00:37:37.518Z,5.51
2023-04-21T00:38:38.042Z,5.46
2023-04-21T00:39:38.561Z,5.48
2023-04-21T00:40:39.063Z,5.43
2023-04-21T00:41:39.564Z,5.54
2023-04-21T00:42:40.069Z,5.61
2023-04-21T00:43:40.562Z,5.56
2023-04-21T00:44:41.067Z,5.56
2023-04-21T00:45:41.563Z,5.59
2023-04-21T00:46:42.101Z,5.56
2023-04-21T00:47:42.655Z,5.62
2023-04-21T00:48:42.637Z,5.59
2023-04-21T00:49:43.141Z,5.44
2023-04-21T00:50:43.668Z,5.50
2023-04-21T00:51:44.187Z,5.54
2023-04-21T00:52:44.710Z,5.56
2023-04-21T00:53:45.207Z,5.61
2023-04-21T00:54:45.708Z,5.56
2023-04-21T00:55:46.259Z,5.57
2023-04-21T00:56:46.765Z,5.62
2023-04-21T00:57:47.278Z,5.54
2023-04-21T00:58:47.792Z,5.64
2023-04-21T00:59:48.303Z,5.56
2023-04-21T01:00:48.879Z,5.54
2023-04-21T01:01:48.898Z,5.53
2023-04-21T01:02:48.948Z,5.53
2023-04-21T01:03:49.067Z,5.48
2023-04-21T01:04:49.114Z,5.56
2023-04-21T01:05:49.656Z,5.44
2023-04-21T01:06:50.162Z,5.43
2023-04-21T01:07:50.661Z,5.51
2023-04-21T01:08:51.176Z,5.47
2023-04-21T01:09:51.706Z,5.56
2023-04-21T01:10:52.236Z,5.51
2023-04-21T01:11:52.744Z,5.59
2023-04-21T01:12:53.257Z,5.59
2023-04-21T01:13:53.773Z,5.64
2023-04-21T01:14:54.289Z,5.61
2023-04-21T01:15:54.797Z,5.57
2023-04-21T01:16:55.387Z,5.65
2023-04-21T01:17:55.379Z,5.59
2023-04-21T01:18:55.996Z,5.53
2023-04-21T01:19:56.019Z,5.50
2023-04-21T01:20:55.938Z,5.43
2023-04-21T01:21:55.939Z,5.39
2023-04-21T01:22:56.464Z,5.32
2023-04-21T01:23:56.970Z,5.41
2023-04-21T01:24:57.484Z,5.44
2023-04-21T01:25:57.982Z,5.48
2023-04-21T01:26:58.482Z,5.46
2023-04-21T01:27:59.057Z,5.38
2023-04-21T01:28:59.563Z,5.38
2023-04-21T01:30:00.065Z,5.33
2023-04-21T01:31:00.573Z,5.28
2023-04-21T01:32:01.116Z,5.28
2023-04-21T01:33:01.680Z,5.36
2023-04-21T01:34:02.212Z,5.29
2023-04-21T01:35:02.722Z,5.28
2023-04-21T01:36:03.219Z,5.28
2023-04-21T01:37:03.716Z,5.28
2023-04-21T01:38:04.210Z,5.43
2023-04-21T01:39:04.727Z,5.39
2023-04-21T01:40:05.287Z,5.32
2023-04-21T01:41:05.796Z,5.36
2023-04-21T01:42:06.299Z,5.32
2023-04-21T01:43:06.801Z,5.23
2023-04-21T01:44:07.324Z,5.23
2023-04-21T01:45:07.856Z,5.21
2023-04-21T01:46:08.402Z,5.14
2023-04-21T01:47:08.923Z,5.33
2023-04-21T01:48:09.512Z,5.30
2023-04-21T01:49:09.482Z,5.36
2023-04-21T01:50:10.033Z,5.32
2023-04-21T01:51:10.562Z,5.36
2023-04-21T01:52:10.602Z,5.43
2023-04-21T01:53:11.111Z,5.43
2023-04-21T01:54:11.606Z,5.47
2023-04-21T01:55:12.110Z,5.43
2023-04-21T01:56:12.623Z,5.47
2023-04-21T01:57:13.167Z,5.33
2023-04-21T01:58:13.721Z,5.32
2023-04-21T01:59:14.226Z,5.44
2023-04-21T02:00:14.738Z,5.43
2023-04-21T02:01:15.286Z,5.39
2023-04-21T02:02:15.924Z,5.35
2023-04-21T02:03:16.066Z,5.43
2023-04-21T02:04:16.273Z,5.43
2023-04-21T02:05:16.243Z,5.46
2023-04-21T02:06:16.741Z,5.46
2023-04-21T02:07:17.249Z,5.46
2023-04-21T02:08:17.757Z,5.54
2023-04-21T02:09:18.585Z,5.53
2023-04-21T02:10:18.729Z,5.46
2023-04-21T02:11:19.260Z,5.46
2023-04-21T02:12:19.791Z,5.38
2023-04-21T02:13:20.287Z,5.36
2023-04-21T02:14:20.772Z,5.39
2023-04-21T02:15:21.277Z,5.33
2023-04-21T02:16:21.846Z,5.30
2023-04-21T02:17:22.373Z,5.33
2023-04-21T02:18:22.901Z,5.30
2023-04-21T02:19:23.457Z,5.28
2023-04-21T02:20:24.020Z,5.28
2023-04-21T02:21:24.546Z,5.21
2023-04-21T02:22:24.628Z,5.17
2023-04-21T02:23:25.140Z,5.11
2023-04-21T02:24:25.689Z,5.10
2023-04-21T02:25:26.193Z,5.14
2023-04-21T02:26:26.683Z,5.10
2023-04-21T02:27:27.205Z,5.14
2023-04-21T02:28:27.738Z,5.28
2023-04-21T02:29:28.252Z,5.23
2023-04-21T02:30:28.756Z,5.25
2023-04-21T02:36:12.208Z,5.08
2023-04-21T02:37:13.370Z,5.02
2023-04-21T02:38:13.941Z,4.99
2023-04-21T02:39:14.503Z,5.18
2023-04-21T02:40:15.097Z,5.08
2023-04-21T02:41:15.668Z,5.14
2023-04-21T02:42:16.248Z,5.05
2023-04-21T02:43:16.828Z,5.21
2023-04-21T02:44:17.375Z,5.11
2023-04-21T02:45:17.916Z,5.14
2023-04-21T02:46:18.559Z,5.02
2023-04-21T02:47:18.572Z,5.07
2023-04-21T02:48:19.149Z,5.12
2023-04-21T02:49:20.061Z,5.18
2023-04-21T02:50:20.280Z,5.14
2023-04-21T02:51:20.867Z,5.18
2023-04-21T02:52:21.446Z,5.32
2023-04-21T02:53:22.037Z,5.30
2023-04-21T02:54:22.620Z,5.32
2023-04-21T02:55:23.192Z,5.21
2023-04-21T02:56:23.776Z,5.15
2023-04-21T02:57:24.361Z,5.05
2023-04-21T02:58:24.954Z,5.00
2023-04-21T02:59:25.536Z,4.87
2023-04-21T03:00:26.384Z,4.84
2023-04-21T03:01:26.492Z,4.86
2023-04-21T03:02:26.792Z,4.87
2023-04-21T03:03:26.999Z,4.96
2023-04-21T03:04:27.310Z,4.96
2023-04-21T03:05:27.497Z,4.92
2023-04-21T03:06:28.066Z,4.96
2023-04-21T03:07:28.652Z,5.00
2023-04-21T03:08:29.242Z,5.04
2023-04-21T03:09:29.832Z,4.94
2023-04-21T03:10:30.431Z,4.94
2023-04-21T03:11:31.035Z,4.99
2023-04-21T03:12:31.620Z,4.92
2023-04-21T03:13:32.192Z,4.82
2023-04-21T03:14:32.771Z,4.89
2023-04-21T03:15:33.343Z,4.78
2023-04-21T03:16:33.948Z,4.84
2023-04-21T03:17:34.589Z,4.75
2023-04-21T03:18:34.609Z,4.90
2023-04-21T03:19:35.191Z,4.93
2023-04-21T03:20:35.786Z,4.96
2023-04-21T03:21:36.377Z,5.02
2023-04-21T03:22:36.970Z,5.02
2023-04-21T03:23:37.550Z,5.14
2023-04-21T03:24:38.153Z,5.05
2023-04-21T03:25:38.771Z,4.97
2023-04-21T03:26:39.357Z,4.87
2023-04-21T03:27:39.923Z,4.77
2023-04-21T03:28:40.487Z,4.74
2023-04-21T03:29:41.061Z,4.71
2023-04-21T03:30:41.702Z,4.71
2023-04-21T03:31:41.718Z,4.78
2023-04-21T03:32:41.950Z,4.93
2023-04-21T03:33:41.946Z,4.74
2023-04-21T03:34:42.523Z,4.74
2023-04-21T03:35:43.099Z,4.92
2023-04-21T03:36:43.676Z,4.84
2023-04-21T03:37:44.239Z,4.87
2023-04-21T03:38:44.819Z,4.86
2023-04-21T03:39:45.403Z,4.89
2023-04-21T03:40:45.971Z,4.99
2023-04-21T03:41:46.556Z,5.02
2023-04-21T03:42:47.155Z,5.00
2023-04-21T03:43:47.720Z,5.11
2023-04-21T03:44:48.294Z,5.02
2023-04-21T03:45:48.921Z,5.00
2023-04-21T03:46:48.990Z,4.90
2023-04-21T03:47:49.758Z,4.82
2023-04-21T03:48:49.856Z,4.66
2023-04-21T03:49:49.920Z,4.80
2023-04-21T03:50:50.538Z,4.77
2023-04-21T03:51:51.183Z,4.77
2023-04-21T03:52:51.219Z,4.73
2023-04-21T03:53:51.844Z,4.80
2023-04-21T03:54:52.454Z,4.78
2023-04-21T03:55:53.085Z,4.74
2023-04-21T03:56:53.121Z,4.89
2023-04-21T03:57:53.740Z,4.73
2023-04-21T03:58:54.367Z,4.66
2023-04-21T03:59:54.972Z,4.71
2023-04-21T04:00:55.578Z,4.77
2023-04-21T04:01:56.194Z,4.86
2023-04-21T04:02:56.932Z,4.77
2023-04-21T04:03:57.230Z,4.94
2023-04-21T04:04:57.375Z,4.97
2023-04-21T04:05:57.515Z,4.97
2023-04-21T04:06:57.574Z,4.77
2023-04-21T04:07:57.622Z,4.86
2023-04-21T04:08:58.218Z,4.89
2023-04-21T04:09:58.838Z,4.74
2023-04-21T04:10:59.464Z,4.75
2023-04-21T04:12:00.123Z,4.74
2023-04-21T04:13:00.166Z,4.86
2023-04-21T04:14:00.795Z,4.84
2023-04-21T04:15:01.457Z,4.84
2023-04-21T04:16:01.564Z,4.71
2023-04-21T04:17:01.640Z,4.74
2023-04-21T04:18:02.279Z,4.71
2023-04-21T04:19:02.371Z,4.80
2023-04-21T04:20:02.420Z,4.84
2023-04-21T04:21:03.042Z,4.74
2023-04-21T04:22:03.654Z,4.82
2023-04-21T04:23:04.254Z,4.74
2023-04-21T04:24:04.864Z,4.75
2023-04-21T04:25:05.506Z,4.74
2023-04-21T04:26:05.759Z,4.71
2023-04-21T04:27:05.851Z,4.75
2023-04-21T04:28:05.873Z,4.73
2023-04-21T04:29:06.478Z,4.82
2023-04-21T04:30:07.135Z,4.92
2023-04-21T04:31:07.229Z,4.77
2023-04-21T04:32:07.288Z,4.74
2023-04-21T04:33:07.935Z,4.73
2023-04-21T04:34:07.977Z,4.77
2023-04-21T04:35:08.614Z,4.82
2023-04-21T04:36:09.222Z,4.75
2023-04-21T04:37:09.842Z,4.84
2023-04-21T04:38:10.450Z,4.78
2023-04-21T04:39:11.071Z,4.75
2023-04-21T04:40:11.682Z,4.78
2023-04-21T04:41:12.302Z,4.82
2023-04-21T04:42:12.946Z,4.97
2023-04-21T04:43:12.996Z,4.97
2023-04-21T04:44:13.062Z,4.96
2023-04-21T04:45:13.121Z,4.96
2023-04-21T04:46:13.750Z,4.86
2023-04-21T04:47:13.786Z,4.87
2023-04-21T04:48:14.415Z,4.82
2023-04-21T04:49:15.031Z,4.75
2023-04-21T04:50:15.630Z,4.87
2023-04-21T04:51:16.241Z,4.87
2023-04-21T04:52:16.826Z,4.93
2023-04-21T04:53:17.398Z,4.75
2023-04-21T04:54:18.355Z,4.82
2023-04-21T04:55:18.595Z,4.84
2023-04-21T04:56:19.176Z,4.92
2023-04-21T04:57:19.793Z,4.77
2023-04-21T04:58:20.379Z,4.90
2023-04-21T04:59:20.973Z,4.97
2023-04-21T05:00:21.578Z,5.04
2023-04-21T05:01:22.206Z,5.02
2023-04-21T05:02:22.363Z,5.05
2023-04-21T05:03:22.654Z,4.97
2023-04-21T05:04:23.137Z,5.00
2023-04-21T05:05:23.104Z,5.12
2023-04-21T05:06:23.686Z,5.02
2023-04-21T05:07:24.270Z,5.07
2023-04-21T05:08:24.890Z,5.00
2023-04-21T05:09:25.476Z,4.99
2023-04-21T05:10:26.042Z,4.89
2023-04-21T05:11:26.618Z,4.94
2023-04-21T05:12:27.198Z,5.11
2023-04-21T05:13:27.804Z,5.12
2023-04-21T05:14:28.406Z,5.10
2023-04-21T05:15:29.038Z,5.20
2023-04-21T05:16:29.060Z,5.20
2023-04-21T05:17:29.697Z,5.07
2023-04-21T05:18:29.707Z,5.02
2023-04-21T05:19:30.276Z,5.02
2023-04-21T05:20:30.864Z,5.05
2023-04-21T05:21:31.450Z,5.07
2023-04-21T05:22:32.046Z,5.02
2023-04-21T05:23:32.649Z,5.12
2023-04-21T05:24:33.218Z,5.14
2023-04-21T05:25:33.782Z,5.26
2023-04-21T05:26:34.348Z,5.18
2023-04-21T05:27:34.927Z,5.26
2023-04-21T05:28:35.496Z,5.14
2023-04-21T05:29:36.068Z,5.17
2023-04-21T05:30:36.640Z,5.21
2023-04-21T05:31:37.248Z,5.23
2023-04-21T05:32:37.860Z,5.32
2023-04-21T05:33:38.464Z,5.33
2023-04-21T05:34:39.074Z,5.36
2023-04-21T05:35:39.680Z,5.44
2023-04-21T05:36:40.258Z,5.36
2023-04-21T05:37:40.852Z,5.38
2023-04-21T05:38:42.434Z,5.46
2023-04-21T05:39:41.841Z,5.38
2023-04-21T05:40:42.442Z,5.43
2023-04-21T05:41:43.045Z,5.39
2023-04-21T05:42:43.634Z,5.35
2023-04-21T05:43:44.239Z,5.41
2023-04-21T05:44:44.821Z,5.41
2023-04-21T05:45:45.453Z,5.50
2023-04-21T05:46:45.508Z,5.43
2023-04-21T05:47:46.166Z,5.44
2023-04-21T05:48:46.190Z,5.48
2023-04-21T05:49:46.765Z,5.46
2023-04-21T05:50:47.352Z,5.53
2023-04-21T05:51:47.936Z,5.53
2023-04-21T05:52:48.532Z,5.61
2023-04-21T05:53:49.110Z,5.64
2023-04-21T05:54:49.686Z,5.57
2023-04-21T05:55:50.283Z,5.56
2023-04-21T05:56:50.853Z,5.53
2023-04-21T05:57:51.424Z,5.56
2023-04-21T05:58:52.029Z,5.61
2023-04-21T05:59:52.605Z,5.62
2023-04-21T06:00:53.178Z,5.68
2023-04-21T06:01:53.760Z,5.68
2023-04-21T06:02:54.468Z,5.75
2023-04-21T06:03:54.774Z,5.69
2023-04-21T06:04:55.002Z,5.72
2023-04-21T06:05:55.194Z,5.69
2023-04-21T06:06:55.310Z,5.73
2023-04-21T06:07:55.892Z,5.73
2023-04-21T06:08:56.468Z,5.80
2023-04-21T06:09:57.057Z,5.79
2023-04-21T06:10:57.647Z,5.82
2023-04-21T06:11:58.224Z,5.80
2023-04-21T06:12:58.824Z,5.80
2023-04-21T06:13:59.401Z,5.76
2023-04-21T06:14:59.970Z,5.80
2023-04-21T06:16:00.594Z,5.80
2023-04-21T06:17:00.612Z,5.83
2023-04-21T06:18:01.354Z,5.82
2023-04-21T06:19:01.449Z,5.84
2023-04-21T06:20:02.040Z,5.86
2023-04-21T06:21:02.652Z,5.89
2023-04-21T06:22:03.227Z,5.68
2023-04-21T06:23:03.823Z,5.91
2023-04-21T06:24:04.396Z,5.97
2023-04-21T06:25:04.962Z,5.90
2023-04-21T06:26:05.600Z,5.89
2023-04-21T06:27:05.619Z,5.91
2023-04-21T06:28:06.175Z,5.91
2023-04-21T06:29:06.745Z,5.89
2023-04-21T06:30:07.318Z,5.82
2023-04-21T06:31:08.984Z,5.84
2023-04-21T06:32:08.082Z,5.82
2023-04-21T06:33:08.151Z,5.80
2023-04-21T06:34:08.145Z,5.87
2023-04-21T06:35:08.713Z,5.90
2023-04-21T06:36:09.306Z,5.89
2023-04-21T06:37:09.900Z,5.93
2023-04-21T06:38:10.509Z,5.94
2023-04-21T06:39:10.551Z,5.89
2023-04-21T06:40:11.142Z,5.83
2023-04-21T06:41:11.722Z,5.80
2023-04-21T06:42:12.309Z,5.90
2023-04-21T06:43:12.901Z,5.97
2023-04-21T06:44:13.483Z,5.97
2023-04-21T06:45:14.058Z,5.99
2023-04-21T06:46:14.630Z,5.99
2023-04-21T06:47:15.246Z,5.86
2023-04-21T06:48:15.938Z,5.94
2023-04-21T06:49:15.954Z,6.01
2023-04-21T06:50:16.538Z,6.01
2023-04-21T06:51:17.134Z,6.01
2023-04-21T06:52:18.902Z,6.04
2023-04-21T06:53:17.759Z,6.05
2023-04-21T06:54:18.315Z,6.02
2023-04-21T06:55:18.868Z,6.12
2023-04-21T06:56:19.429Z,6.19
2023-04-21T06:57:20.000Z,6.22
2023-04-21T06:58:21.455Z,6.20
2023-04-21T06:59:21.202Z,6.16
2023-04-21T07:00:21.299Z,6.19
2023-04-21T07:01:21.916Z,6.11
2023-04-21T07:02:22.026Z,5.99
2023-04-21T07:03:22.316Z,5.97
2023-04-21T07:04:22.536Z,5.93
2023-04-21T07:05:22.545Z,5.99
2023-04-21T07:06:23.131Z,5.89
2023-04-21T07:07:23.724Z,5.99
2023-04-21T07:08:24.298Z,6.05
2023-04-21T07:09:24.885Z,6.08
2023-04-21T07:10:25.520Z,6.12
2023-04-21T07:11:25.536Z,6.26
2023-04-21T07:12:26.154Z,6.11
2023-04-21T07:13:26.144Z,6.20
2023-04-21T07:14:26.721Z,6.28
2023-04-21T07:15:27.306Z,6.39
2023-04-21T07:16:27.921Z,6.35
2023-04-21T07:17:27.963Z,6.24
2023-04-21T07:18:27.985Z,6.41
2023-04-21T07:19:28.620Z,6.28
2023-04-21T07:20:28.618Z,6.22
2023-04-21T07:21:29.200Z,6.09
2023-04-21T07:22:29.792Z,6.26
2023-04-21T07:23:30.386Z,6.20
2023-04-21T07:24:30.978Z,6.35
2023-04-21T07:25:31.552Z,6.38
2023-04-21T07:26:32.124Z,6.42
2023-04-21T07:27:32.722Z,6.38
2023-04-21T07:28:32.706Z,6.42
2023-04-21T07:29:33.275Z,6.31
2023-04-21T07:30:33.872Z,6.31
2023-04-21T07:31:34.000Z,6.57
2023-04-21T07:32:34.332Z,6.75
2023-04-21T07:33:34.916Z,6.84
2023-04-21T07:34:35.523Z,6.97
2023-04-21T07:35:35.513Z,7.15
2023-04-21T07:36:36.102Z,7.31
2023-04-21T07:37:36.086Z,7.20
2023-04-21T07:38:36.755Z,7.14
2023-04-21T07:39:36.741Z,7.14
2023-04-21T07:40:37.315Z,7.18
2023-04-21T07:41:37.895Z,7.11
2023-04-21T07:42:38.464Z,7.18
2023-04-21T07:43:39.023Z,7.21
2023-04-21T07:44:39.584Z,7.23
2023-04-21T07:45:40.125Z,7.29
2023-04-21T07:46:40.699Z,7.31
2023-04-21T07:47:40.712Z,7.38
2023-04-21T07:48:40.699Z,7.35
2023-04-21T07:49:41.237Z,7.32
2023-04-21T07:50:41.774Z,7.36
2023-04-21T07:51:42.321Z,7.39
2023-04-21T07:52:42.857Z,7.43
2023-04-21T07:53:43.402Z,7.42
2023-04-21T07:54:43.958Z,7.38
2023-04-21T07:55:44.534Z,7.45
2023-04-21T07:56:45.092Z,7.42
2023-04-21T07:57:45.656Z,7.56
2023-04-21T07:58:46.203Z,7.51
2023-04-21T07:59:46.775Z,7.67
2023-04-21T08:00:47.345Z,7.77
2023-04-21T08:01:48.114Z,7.70
2023-04-21T08:02:48.397Z,7.79
2023-04-21T08:03:48.940Z,7.94
2023-04-21T08:04:49.104Z,8.08
2023-04-21T08:05:49.444Z,8.05
2023-04-21T08:06:49.980Z,8.03
2023-04-21T08:07:49.505Z,8.03
2023-04-21T08:08:50.079Z,8.18
2023-04-21T08:09:50.121Z,8.10
2023-04-21T08:10:50.062Z,7.91
2023-04-21T08:11:50.605Z,7.72
2023-04-21T08:12:51.150Z,7.73
2023-04-21T08:13:51.742Z,7.82
2023-04-21T08:14:55.251Z,7.88
2023-04-21T08:15:52.296Z,8.01
2023-04-21T08:16:53.506Z,8.23
2023-04-21T08:17:53.002Z,8.30
2023-04-21T08:18:52.975Z,8.46
2023-04-21T08:19:52.955Z,8.67
2023-04-21T08:20:53.514Z,8.76
2023-04-21T08:21:54.096Z,8.76
2023-04-21T08:22:54.227Z,8.82
2023-04-21T08:23:54.208Z,8.82
2023-04-21T08:24:54.731Z,8.95
2023-04-21T08:25:55.293Z,9.14
2023-04-21T08:26:55.977Z,9.08
2023-04-21T08:27:55.930Z,9.04
2023-04-21T08:28:56.452Z,8.97
2023-04-21T08:29:56.985Z,8.91
2023-04-21T08:30:57.511Z,8.92
2023-04-21T08:31:58.122Z,8.97
2023-04-21T08:32:58.245Z,8.85
2023-04-21T08:34:02.481Z,8.95
2023-04-21T08:34:58.319Z,9.16
2023-04-21T08:36:05.456Z,9.44
2023-04-21T08:36:59.081Z,9.58
2023-04-21T08:37:59.046Z,9.83
2023-04-21T08:38:59.087Z,9.94
2023-04-21T08:39:59.103Z,10.13
2023-04-21T08:40:59.081Z,9.95
2023-04-21T08:41:59.605Z,9.89
2023-04-21T08:43:00.132Z,9.97
2023-04-21T08:44:00.123Z,10.09
2023-04-21T08:45:00.174Z,10.13
2023-04-21T08:46:00.269Z,10.16
2023-04-21T08:47:00.253Z,10.28
2023-04-21T08:48:00.834Z,10.34
2023-04-21T08:49:00.811Z,10.34
2023-04-21T08:50:00.774Z,10.42
2023-04-21T08:51:00.723Z,10.40
2023-04-21T08:52:00.691Z,10.41
2023-04-21T08:53:01.240Z,10.46
2023-04-21T08:54:01.207Z,10.51
2023-04-21T08:55:01.218Z,10.60
2023-04-21T08:56:10.908Z,10.74
2023-04-21T08:57:11.886Z,10.89
2023-04-21T08:58:01.662Z,10.96
2023-04-21T08:59:01.631Z,10.96
2023-04-21T09:00:02.981Z,10.94
2023-04-21T09:01:01.643Z,11.02
2023-04-21T09:02:01.776Z,11.14
2023-04-21T09:03:02.693Z,11.11
2023-04-21T09:04:02.436Z,11.25
2023-04-21T09:05:02.776Z,11.32
2023-04-21T09:06:02.745Z,11.43
2023-04-21T09:07:02.843Z,11.48
2023-04-21T09:08:02.816Z,11.44
2023-04-21T09:09:02.763Z,11.47
2023-04-21T09:10:02.724Z,11.59
2023-04-21T09:11:02.772Z,11.62
2023-04-21T09:12:02.748Z,11.48
2023-04-21T09:13:02.705Z,11.54
2023-04-21T09:14:02.684Z,11.51
2023-04-21T09:15:02.628Z,11.55
2023-04-21T09:16:02.606Z,11.70
2023-04-21T09:17:02.820Z,11.78
2023-04-21T09:18:02.926Z,11.94
2023-04-21T09:19:02.925Z,11.69
2023-04-21T09:20:02.882Z,11.60
2023-04-21T09:21:02.838Z,11.70
2023-04-21T09:22:02.793Z,11.80
2023-04-21T09:23:02.751Z,11.86
2023-04-21T09:24:02.701Z,12.02
2023-04-21T09:25:02.648Z,12.15
2023-04-21T09:26:02.669Z,12.04
2023-04-21T09:27:02.660Z,12.09
2023-04-21T09:28:02.616Z,12.09
2023-04-21T09:29:02.589Z,12.09
2023-04-21T09:30:02.557Z,12.10
2023-04-21T09:31:02.523Z,12.12
2023-04-21T09:32:02.496Z,12.13
2023-04-21T09:33:06.211Z,12.15
2023-04-21T09:34:02.709Z,12.15
2023-04-21T09:35:02.684Z,12.22
2023-04-21T09:36:02.652Z,12.27
2023-04-21T09:37:02.604Z,12.40
2023-04-21T09:38:02.547Z,12.36
2023-04-21T09:40:05.177Z,12.54
2023-04-21T09:41:02.671Z,12.64
2023-04-21T09:42:02.606Z,12.76
2023-04-21T09:43:02.554Z,12.72
2023-04-21T09:44:02.497Z,12.76
2023-04-21T09:45:28.450Z,12.83
2023-04-21T09:46:02.707Z,12.83
2023-04-21T09:47:02.773Z,12.83
2023-04-21T09:48:02.736Z,13.11
2023-04-21T09:49:02.705Z,13.27
2023-04-21T09:50:02.828Z,13.27
2023-04-21T09:51:28.229Z,13.20
2023-04-21T09:53:02.086Z,13.44
2023-04-21T09:54:03.198Z,13.63
2023-04-21T09:55:03.131Z,13.77
2023-04-21T09:56:03.073Z,13.65
2023-04-21T09:57:03.025Z,13.62
2023-04-21T09:58:02.971Z,13.59
2023-04-21T09:59:02.934Z,13.63
2023-04-21T10:00:02.907Z,13.87
2023-04-21T10:01:02.867Z,14.07
2023-04-21T10:02:02.883Z,13.89
2023-04-21T10:03:02.964Z,14.07
2023-04-21T10:04:03.128Z,14.11
2023-04-21T10:05:03.361Z,14.17
2023-04-21T10:06:03.560Z,14.11
2023-04-21T10:07:03.585Z,14.07
2023-04-21T10:08:03.562Z,14.15
2023-04-21T10:09:03.498Z,14.25
2023-04-21T10:10:03.427Z,14.14
2023-04-21T10:11:03.374Z,14.04
2023-04-21T10:12:03.312Z,14.14
2023-04-21T10:13:03.234Z,14.25
2023-04-21T10:14:03.193Z,14.35
2023-04-21T10:15:03.124Z,13.93
2023-04-21T10:16:03.062Z,14.00
2023-04-21T10:17:03.085Z,14.28
2023-04-21T10:18:03.069Z,14.59
2023-04-21T10:19:03.019Z,14.81
2023-04-21T10:20:02.941Z,14.94
2023-04-21T10:21:02.876Z,14.91
2023-04-21T10:22:02.777Z,14.96
2023-04-21T10:23:02.695Z,14.81
2023-04-21T10:24:03.171Z,14.69
2023-04-21T10:25:03.660Z,14.66
2023-04-21T10:26:04.135Z,14.60
2023-04-21T10:27:04.034Z,14.54
2023-04-21T10:28:03.954Z,14.81
2023-04-21T10:29:04.453Z,14.89
2023-04-21T10:30:04.379Z,15.17
2023-04-21T10:31:04.360Z,15.24
2023-04-21T10:32:05.208Z,15.33
2023-04-21T10:33:04.486Z,15.49
2023-04-21T10:34:04.395Z,15.61
2023-04-21T10:35:04.337Z,15.68
2023-04-21T10:36:04.247Z,15.77
2023-04-21T10:37:04.165Z,15.91
2023-04-21T10:38:04.060Z,15.98
2023-04-21T10:39:04.504Z,15.98
2023-04-21T10:40:04.415Z,15.98
2023-04-21T10:41:04.320Z,16.04
2023-04-21T10:42:04.224Z,16.17
2023-04-21T10:43:04.115Z,16.23
2023-04-21T10:44:04.573Z,16.21
2023-04-21T10:45:05.032Z,16.16
2023-04-21T10:46:05.497Z,16.02
2023-04-21T10:47:05.995Z,16.05
2023-04-21T10:48:05.875Z,16.10
2023-04-21T10:49:05.808Z,16.16
2023-04-21T10:50:06.224Z,16.20
2023-04-21T10:51:06.662Z,16.26
2023-04-21T10:52:07.122Z,16.20
2023-04-21T10:53:07.507Z,16.16
2023-04-21T10:54:07.946Z,16.28
2023-04-21T10:55:08.424Z,16.31
2023-04-21T10:56:08.263Z,16.00
2023-04-21T10:57:08.728Z,15.76
2023-04-21T10:58:09.203Z,15.65
2023-04-21T10:59:09.100Z,15.65
2023-04-21T11:00:08.967Z,15.97
2023-04-21T11:01:09.407Z,15.97
2023-04-21T11:02:09.333Z,16.00
2023-04-21T11:03:09.388Z,16.04
2023-04-21T11:04:09.410Z,16.24
2023-04-21T11:05:09.427Z,16.23
2023-04-21T11:06:09.252Z,16.13
2023-04-21T11:07:09.659Z,16.29
2023-04-21T11:08:10.043Z,16.49
2023-04-21T11:09:10.427Z,16.57
2023-04-21T11:10:10.811Z,16.76
2023-04-21T11:11:11.295Z,16.83
2023-04-21T11:12:11.115Z,16.89
2023-04-21T11:13:11.534Z,17.02
2023-04-21T11:14:11.393Z,17.08
2023-04-21T11:15:11.762Z,17.26
2023-04-21T11:16:12.169Z,17.24
2023-04-21T11:17:12.544Z,17.14
2023-04-21T11:18:12.907Z,16.90
2023-04-21T11:19:13.309Z,16.99
2023-04-21T11:20:13.690Z,16.79
2023-04-21T11:21:14.040Z,17.04
2023-04-21T11:22:14.422Z,17.16
2023-04-21T11:23:14.798Z,17.31
2023-04-21T11:24:15.168Z,17.52
2023-04-21T11:25:15.585Z,17.52
2023-04-21T11:26:15.976Z,17.52
2023-04-21T11:27:16.335Z,17.48
2023-04-21T11:28:16.700Z,17.67
2023-04-21T11:29:17.131Z,17.74
2023-04-21T11:30:17.536Z,17.79
2023-04-21T11:31:17.907Z,17.83
2023-04-21T11:32:18.285Z,17.80
2023-04-21T11:33:18.657Z,17.57
2023-04-21T11:34:18.735Z,17.26
2023-04-21T11:35:18.655Z,17.09
2023-04-21T11:36:18.991Z,17.12
2023-04-21T11:37:19.321Z,17.23
2023-04-21T11:38:19.662Z,17.23
2023-04-21T11:39:21.829Z,17.44
2023-04-21T11:40:20.264Z,17.76
2023-04-21T11:41:20.602Z,18.08
2023-04-21T11:42:20.917Z,18.04
2023-04-21T11:43:21.245Z,18.05
2023-04-21T11:44:21.582Z,18.16
2023-04-21T11:45:22.784Z,18.31
2023-04-21T11:46:22.148Z,18.40
2023-04-21T11:47:21.988Z,18.43
2023-04-21T11:48:21.689Z,18.56
2023-04-21T11:49:21.975Z,18.65
2023-04-21T11:50:22.222Z,18.44
2023-04-21T11:51:22.599Z,18.31
2023-04-21T11:52:22.284Z,18.07
2023-04-21T11:53:22.535Z,17.94
2023-04-21T11:54:22.786Z,17.78
2023-04-21T11:55:23.047Z,17.65
2023-04-21T11:56:23.298Z,17.54
2023-04-21T11:57:23.567Z,17.48
2023-04-21T11:58:23.843Z,17.52
2023-04-21T11:59:25.657Z,17.71
2023-04-21T12:00:24.015Z,17.82
2023-04-21T12:01:24.291Z,18.00
2023-04-21T12:02:24.666Z,18.23
2023-04-21T12:03:24.539Z,18.43
2023-04-21T12:04:24.381Z,18.52
2023-04-21T12:05:24.143Z,18.26
2023-04-21T12:06:23.968Z,18.19
2023-04-21T12:07:23.763Z,17.95
2023-04-21T12:08:24.005Z,17.72
2023-04-21T12:09:24.259Z,17.74
2023-04-21T12:10:24.497Z,17.86
2023-04-21T12:11:24.737Z,17.98
2023-04-21T12:12:24.966Z,18.04
2023-04-21T12:13:25.212Z,18.18
2023-04-21T12:14:25.435Z,18.31
2023-04-21T12:15:25.714Z,18.52
2023-04-21T12:16:25.448Z,18.78
2023-04-21T12:17:25.141Z,18.75
2023-04-21T12:18:24.810Z,18.96
2023-04-21T12:19:25.033Z,19.11
2023-04-21T12:20:25.255Z,19.22
2023-04-21T12:21:25.462Z,19.34
2023-04-21T12:22:25.666Z,19.58
2023-04-21T12:23:25.850Z,19.73
2023-04-21T12:24:26.054Z,19.74
2023-04-21T12:25:25.693Z,19.71
2023-04-21T12:26:25.892Z,19.70
2023-04-21T12:27:26.082Z,19.73
2023-04-21T12:28:26.257Z,19.73
2023-04-21T12:29:26.453Z,19.77
2023-04-21T12:30:26.635Z,19.74
2023-04-21T12:31:26.944Z,19.45
2023-04-21T12:32:26.618Z,19.24
2023-04-21T12:33:26.419Z,19.11
2023-04-21T12:34:26.138Z,18.81
2023-04-21T12:35:26.326Z,18.78
2023-04-21T12:36:26.557Z,18.53
2023-04-21T12:37:26.745Z,18.70
2023-04-21T12:38:26.953Z,19.09
2023-04-21T12:39:27.244Z,19.16
2023-04-21T12:40:27.012Z,18.99
2023-04-21T12:41:27.211Z,18.98
2023-04-21T12:42:27.456Z,19.19
2023-04-21T12:43:27.657Z,19.37
2023-04-21T12:44:27.865Z,19.45
2023-04-21T12:45:28.126Z,19.59
2023-04-21T12:46:28.044Z,19.66
2023-04-21T12:47:27.766Z,19.81
2023-04-21T12:48:27.409Z,20.10
2023-04-21T12:49:27.790Z,20.31
2023-04-21T12:50:27.491Z,20.39
2023-04-21T12:51:27.693Z,20.19
2023-04-21T12:52:27.886Z,20.36
2023-04-21T12:53:30.491Z,20.29
2023-04-21T12:54:27.845Z,20.04
2023-04-21T12:55:28.028Z,20.16
2023-04-21T12:56:28.202Z,20.47
2023-04-21T12:57:28.397Z,20.59
2023-04-21T12:58:28.584Z,20.47
2023-04-21T12:59:29.089Z,20.13
2023-04-21T13:00:28.901Z,20.09
2023-04-21T13:01:29.155Z,20.00
2023-04-21T13:02:28.863Z,20.21
2023-04-21T13:03:28.680Z,20.55
2023-04-21T13:04:28.575Z,20.63
2023-04-21T13:05:28.287Z,20.81
2023-04-21T13:06:28.457Z,21.22
2023-04-21T13:07:28.651Z,21.24
2023-04-21T13:08:28.846Z,21.03
2023-04-21T13:09:29.182Z,20.82
2023-04-21T13:10:28.907Z,20.81
2023-04-21T13:11:29.098Z,20.87
2023-04-21T13:12:29.267Z,20.88
2023-04-21T13:13:29.430Z,21.00
2023-04-21T13:14:29.607Z,20.90
2023-04-21T13:15:29.798Z,20.75
2023-04-21T13:16:30.301Z,21.17
2023-04-21T13:17:30.086Z,21.60
2023-04-21T13:18:30.274Z,21.89
2023-04-21T13:19:30.665Z,22.15
2023-04-21T13:20:30.378Z,21.88